createdAt,value
2023-04-28T00:01:04.733Z,99279.68
2023-04-28T00:03:38.072Z,99276.55
2023-04-28T00:06:12.056Z,99284.39
2023-04-28T00:08:44.760Z,99287.35
2023-04-28T00:11:17.488Z,99286.81
2023-04-28T00:13:51.950Z,99288.88
2023-04-28T00:16:25.170Z,99285.74
2023-04-28T00:18:58.684Z,99286.69
2023-04-28T00:21:32.423Z,99286.77
2023-04-28T00:24:05.772Z,99285.45
2023-04-28T00:26:40.417Z,99284.06
2023-04-28T00:29:13.375Z,99287.17
2023-04-28T00:31:47.358Z,99287.68
2023-04-28T00:34:20.041Z,99289.00
2023-04-28T00:36:53.064Z,99286.30
2023-04-28T00:39:28.055Z,99292.35
2023-04-28T00:42:02.419Z,99294.14
2023-04-28T00:44:35.717Z,99292.35
2023-04-28T00:47:10.680Z,99295.74
2023-04-28T00:49:43.558Z,99294.28
2023-04-28T00:52:16.983Z,99300.26
2023-04-28T00:54:50.240Z,99293.56
2023-04-28T00:57:23.792Z,99295.32
2023-04-28T00:59:57.053Z,99293.89
2023-04-28T01:02:30.998Z,99300.66
2023-04-28T01:05:04.420Z,99303.48
2023-04-28T01:07:39.371Z,99301.13
2023-04-28T01:10:13.361Z,99297.19
2023-04-28T01:12:46.553Z,99297.27
2023-04-28T01:15:21.587Z,99296.52
2023-04-28T01:17:56.168Z,99291.89
2023-04-28T01:20:29.107Z,99293.38
2023-04-28T01:23:02.266Z,99298.83
2023-04-28T01:25:36.064Z,99302.77
2023-04-28T01:28:09.858Z,99311.41
2023-04-28T01:30:42.687Z,99320.56
2023-04-28T01:33:15.956Z,99332.84
2023-04-28T01:35:48.729Z,99335.90
2023-04-28T01:38:21.868Z,99336.38
2023-04-28T01:40:58.761Z,99332.39
2023-04-28T01:43:31.775Z,99336.38
2023-04-28T01:46:04.837Z,99338.97
2023-04-28T01:48:38.255Z,99330.05
2023-04-28T01:51:11.342Z,99338.28
2023-04-28T01:53:44.678Z,99325.45
2023-04-28T01:56:17.790Z,99326.77
2023-04-28T01:58:51.083Z,99320.16
2023-04-28T02:01:24.037Z,99323.59
2023-04-28T02:03:57.300Z,99323.14
2023-04-28T02:06:30.388Z,99317.84
2023-04-28T02:09:03.215Z,99310.37
2023-04-28T02:11:37.802Z,99303.98
2023-04-28T02:14:10.995Z,99303.38
2023-04-28T02:16:43.953Z,99308.63
2023-04-28T02:19:17.671Z,99304.52
2023-04-28T02:21:50.693Z,99298.70
2023-04-28T02:24:23.500Z,99299.02
2023-04-28T02:26:56.512Z,99305.49
2023-04-28T02:29:32.119Z,99304.44
2023-04-28T02:32:05.294Z,99302.34
2023-04-28T02:34:38.353Z,99296.04
2023-04-28T02:37:12.940Z,99303.30
2023-04-28T02:39:46.607Z,99321.77
2023-04-28T02:42:19.648Z,99332.84
2023-04-28T02:44:52.520Z,99340.72
2023-04-28T02:47:25.518Z,99337.30
2023-04-28T02:49:58.254Z,99352.75
2023-04-28T02:52:33.287Z,99358.40
2023-04-28T02:55:07.300Z,99362.42
2023-04-28T02:57:40.119Z,99369.52
2023-04-28T03:00:14.852Z,99378.57
2023-04-28T03:02:49.584Z,99380.10
2023-04-28T03:05:25.127Z,99374.17
2023-04-28T03:07:58.090Z,99371.31
2023-04-28T03:10:31.538Z,99371.03
2023-04-28T03:13:05.628Z,99376.89
2023-04-28T03:15:38.519Z,99366.02
2023-04-28T03:18:11.444Z,99362.50
2023-04-28T03:20:44.443Z,99357.36
2023-04-28T03:23:17.348Z,99347.77
2023-04-28T03:25:50.331Z,99333.73
2023-04-28T03:28:23.191Z,99328.52
2023-04-28T03:30:56.432Z,99337.56
2023-04-28T03:33:29.585Z,99351.72
2023-04-28T03:36:02.731Z,99355.62
2023-04-28T03:38:35.772Z,99358.28
2023-04-28T03:41:08.670Z,99354.90
2023-04-28T03:43:43.192Z,99355.86
2023-04-28T03:46:34.952Z,99361.66
2023-04-28T03:49:07.944Z,99353.86
2023-04-28T03:51:41.363Z,99355.66
2023-04-28T03:54:14.773Z,99350.43
2023-04-28T03:56:48.389Z,99346.59
2023-04-28T03:59:21.270Z,99342.73
2023-04-28T04:01:54.745Z,99339.34
2023-04-28T04:04:27.614Z,99349.56
2023-04-28T04:07:02.354Z,99351.06
2023-04-28T04:09:35.346Z,99349.39
2023-04-28T04:12:09.525Z,99351.66
2023-04-28T04:14:42.276Z,99356.98
2023-04-28T04:17:15.344Z,99355.74
2023-04-28T04:19:48.157Z,99361.95
2023-04-28T04:22:20.956Z,99368.23
2023-04-28T04:24:53.810Z,99370.06
2023-04-28T04:27:27.652Z,99369.70
2023-04-28T04:30:01.065Z,99373.72
2023-04-28T04:32:34.003Z,99371.56
2023-04-28T04:35:07.508Z,99372.47
2023-04-28T04:37:40.541Z,99359.41
2023-04-28T04:40:13.796Z,99358.13
2023-04-28T04:42:48.268Z,99356.48
2023-04-28T04:45:22.786Z,99363.57
2023-04-28T04:47:56.516Z,99358.84
2023-04-28T04:50:29.443Z,99357.70
2023-04-28T04:53:02.363Z,99356.55
2023-04-28T04:55:35.375Z,99357.61
2023-04-28T04:58:08.636Z,99347.67
2023-04-28T05:00:44.785Z,99340.39
2023-04-28T05:03:18.463Z,99337.00
2023-04-28T05:05:51.594Z,99329.21
2023-04-28T05:08:26.373Z,99317.97
2023-04-28T05:10:59.365Z,99316.33
2023-04-28T05:13:32.238Z,99323.55
2023-04-28T05:16:07.665Z,99323.67
2023-04-28T05:18:57.771Z,99318.03
2023-04-28T05:21:31.366Z,99306.30
2023-04-28T05:24:04.753Z,99311.19
2023-04-28T05:26:38.540Z,99315.22
2023-04-28T05:29:13.081Z,99312.16
2023-04-28T05:31:46.388Z,99309.14
2023-04-28T05:34:19.885Z,99315.75
2023-04-28T05:36:54.185Z,99304.38
2023-04-28T05:39:28.868Z,99304.41
2023-04-28T05:42:04.734Z,99310.20
2023-04-28T05:44:37.572Z,99317.23
2023-04-28T05:47:10.648Z,99317.28
2023-04-28T05:49:43.750Z,99317.74
2023-04-28T05:52:16.782Z,99308.06
2023-04-28T05:54:49.919Z,99309.83
2023-04-28T05:57:23.131Z,99308.06
2023-04-28T05:59:56.509Z,99304.58
2023-04-28T06:02:29.599Z,99301.52
2023-04-28T06:05:03.099Z,99295.82
2023-04-28T06:07:37.002Z,99294.07
2023-04-28T06:10:11.824Z,99299.34
2023-04-28T06:12:45.019Z,99289.23
2023-04-28T06:15:18.038Z,99291.55
2023-04-28T06:17:51.608Z,99287.69
2023-04-28T06:20:24.545Z,99290.87
2023-04-28T06:22:59.144Z,99290.13
2023-04-28T06:25:33.013Z,99285.86
2023-04-28T06:28:07.697Z,99287.68
2023-04-28T06:30:40.664Z,99286.91
2023-04-28T06:33:13.383Z,99282.58
2023-04-28T06:35:46.864Z,99282.66
2023-04-28T06:38:21.129Z,99289.32
2023-04-28T06:40:54.117Z,99300.34
2023-04-28T06:43:27.668Z,99303.02
2023-04-28T06:46:14.681Z,99305.67
2023-04-28T06:48:48.047Z,99304.80
2023-04-28T06:51:21.455Z,99308.82
2023-04-28T06:53:54.236Z,99311.95
2023-04-28T06:56:27.753Z,99305.34
2023-04-28T06:59:01.748Z,99311.52
2023-04-28T07:01:35.014Z,99306.27
2023-04-28T07:04:07.950Z,99304.13
2023-04-28T07:06:41.710Z,99307.72
2023-04-28T07:09:16.224Z,99306.03
2023-04-28T07:11:49.119Z,99309.63
2023-04-28T07:14:22.107Z,99304.00
2023-04-28T07:16:55.194Z,99308.00
2023-04-28T07:19:28.235Z,99308.47
2023-04-28T07:22:01.249Z,99302.77
2023-04-28T07:24:34.329Z,99305.48
2023-04-28T07:27:07.208Z,99303.36
2023-04-28T07:29:40.392Z,99307.81
2023-04-28T07:32:13.516Z,99307.86
2023-04-28T07:34:46.830Z,99302.20
2023-04-28T07:37:20.203Z,99303.12
2023-04-28T07:39:53.066Z,99303.20
2023-04-28T07:42:27.761Z,99304.58
2023-04-28T07:45:00.672Z,99302.90
2023-04-28T07:47:34.016Z,99295.03
2023-04-28T07:50:08.354Z,99295.54
2023-04-28T07:52:40.346Z,99297.38
2023-04-28T07:55:13.310Z,99297.05
2023-04-28T07:57:47.129Z,99293.56
2023-04-28T08:00:20.346Z,99285.69
2023-04-28T08:02:53.412Z,99284.86
2023-04-28T08:05:26.690Z,99281.39
2023-04-28T08:08:01.209Z,99279.19
2023-04-28T08:10:33.246Z,99277.89
2023-04-28T08:13:06.186Z,99290.28
2023-04-28T08:15:39.249Z,99283.23
2023-04-28T08:18:12.350Z,99280.54
2023-04-28T08:20:45.776Z,99276.10
2023-04-28T08:23:18.651Z,99281.91
2023-04-28T08:25:52.411Z,99283.25
2023-04-28T08:28:25.605Z,99287.24
2023-04-28T08:30:58.994Z,99278.38
2023-04-28T08:33:32.229Z,99278.38
2023-04-28T08:36:05.684Z,99278.84
2023-04-28T08:38:39.544Z,99280.13
2023-04-28T08:41:15.320Z,99284.56
2023-04-28T08:43:48.693Z,99280.58
2023-04-28T08:46:23.417Z,99277.05
2023-04-28T08:49:02.169Z,99277.47
2023-04-28T08:51:42.376Z,99281.03
2023-04-28T08:54:26.237Z,99272.62
2023-04-28T08:56:52.428Z,99268.18
2023-04-28T08:59:25.523Z,99268.17
2023-04-28T09:01:58.853Z,99281.42
2023-04-28T09:04:32.429Z,99279.66
2023-04-28T09:07:14.545Z,99283.61
2023-04-28T09:09:47.577Z,99283.15
2023-04-28T09:12:22.189Z,99284.94
2023-04-28T09:14:59.773Z,99282.74
2023-04-28T09:17:32.780Z,99279.66
2023-04-28T09:20:08.170Z,99273.48
2023-04-28T09:22:41.596Z,99274.80
2023-04-28T09:25:14.984Z,99277.45
2023-04-28T09:27:47.997Z,99276.58
2023-04-28T09:30:21.743Z,99278.33
2023-04-28T09:33:11.262Z,99280.98
2023-04-28T09:35:46.107Z,99285.43
2023-04-28T09:38:20.322Z,99291.20
2023-04-28T09:41:02.815Z,99296.05
2023-04-28T09:43:37.439Z,99294.73
2023-04-28T09:46:10.217Z,99289.42
2023-04-28T09:48:45.062Z,99292.08
2023-04-28T09:51:22.046Z,99292.98
2023-04-28T09:53:54.886Z,99299.62
2023-04-28T09:56:30.305Z,99298.74
2023-04-28T09:59:04.376Z,99297.41
2023-04-28T10:01:42.343Z,99299.18
2023-04-28T10:04:15.620Z,99298.26
2023-04-28T10:06:48.776Z,99305.28
2023-04-28T10:09:24.840Z,99303.94
2023-04-28T10:11:58.080Z,99306.98
2023-04-28T10:14:32.587Z,99298.55
2023-04-28T10:17:07.084Z,99292.74
2023-04-28T10:19:41.029Z,99282.98
2023-04-28T10:23:00.021Z,99278.53
2023-04-28T10:25:36.781Z,99282.40
2023-04-28T10:28:11.367Z,99279.22
2023-04-28T10:30:44.294Z,99270.34
2023-04-28T10:33:22.160Z,99270.30
2023-04-28T10:35:55.154Z,99269.42
2023-04-28T10:38:27.898Z,99279.57
2023-04-28T10:41:03.617Z,99284.89
2023-04-28T10:43:39.942Z,99282.30
2023-04-28T10:46:13.143Z,99288.11
2023-04-28T10:48:54.346Z,99286.00
2023-04-28T10:51:30.435Z,99289.17
2023-04-28T10:54:10.554Z,99296.77
2023-04-28T10:56:48.225Z,99296.81
2023-04-28T10:59:28.705Z,99300.36
2023-04-28T11:02:21.361Z,99304.81
2023-04-28T11:05:12.836Z,99298.19
2023-04-28T11:08:21.986Z,99300.84
2023-04-28T11:11:20.354Z,99296.41
2023-04-28T11:13:54.938Z,99299.53
2023-04-28T11:16:28.250Z,99300.87
2023-04-28T11:19:05.131Z,99300.87
2023-04-28T11:21:38.232Z,99292.02
2023-04-28T11:24:11.814Z,99284.52
2023-04-28T11:26:45.108Z,99281.86
2023-04-28T11:29:18.184Z,99279.22
2023-04-28T11:31:54.488Z,99279.22
2023-04-28T11:34:27.642Z,99281.86
2023-04-28T11:37:00.766Z,99277.41
2023-04-28T11:39:35.425Z,99277.42
2023-04-28T11:42:12.822Z,99268.52
2023-04-28T11:44:55.302Z,99275.57
2023-04-28T11:47:33.085Z,99275.14
2023-04-28T11:50:06.191Z,99271.56
2023-04-28T11:52:41.614Z,99262.72
2023-04-28T11:55:20.139Z,99260.52
2023-04-28T11:58:14.472Z,99252.55
2023-04-28T12:00:47.727Z,99249.47
2023-04-28T12:03:21.186Z,99244.64
2023-04-28T12:05:54.292Z,99241.57
2023-04-28T12:08:31.363Z,99243.34
2023-04-28T12:11:13.043Z,99233.20
2023-04-28T12:13:46.410Z,99233.64
2023-04-28T12:16:24.344Z,99234.95
2023-04-28T12:19:02.740Z,99232.28
2023-04-28T12:21:38.042Z,99231.80
2023-04-28T12:24:19.364Z,99218.56
2023-04-28T12:26:52.068Z,99216.77
2023-04-28T12:29:46.216Z,99215.44
2023-04-28T12:32:20.657Z,99216.30
2023-04-28T12:34:53.622Z,99213.63
2023-04-28T12:37:26.413Z,99218.92
2023-04-28T12:39:59.385Z,99218.95
2023-04-28T12:42:32.438Z,99219.82
2023-04-28T12:45:05.887Z,99220.24
2023-04-28T12:47:40.424Z,99214.55
2023-04-28T12:50:14.019Z,99215.87
2023-04-28T12:52:47.108Z,99214.98
2023-04-28T12:55:20.139Z,99216.31
2023-04-28T12:57:52.998Z,99219.41
2023-04-28T13:00:26.575Z,99217.64
2023-04-28T13:03:00.249Z,99216.77
2023-04-28T13:05:35.291Z,99214.58
2023-04-28T13:08:08.514Z,99216.31
2023-04-28T13:10:42.155Z,99220.73
2023-04-28T13:13:15.154Z,99212.33
2023-04-28T13:15:48.237Z,99224.28
2023-04-28T13:18:21.370Z,99220.78
2023-04-28T13:20:54.309Z,99218.58
2023-04-28T13:23:27.197Z,99218.57
2023-04-28T13:26:00.044Z,99217.23
2023-04-28T13:28:33.439Z,99221.21
2023-04-28T13:31:06.707Z,99220.27
2023-04-28T13:33:39.670Z,99225.08
2023-04-28T13:36:13.159Z,99228.96
2023-04-28T13:38:47.866Z,99225.84
2023-04-28T13:41:21.623Z,99228.89
2023-04-28T13:43:54.684Z,99229.78
2023-04-28T13:46:27.920Z,99224.00
2023-04-28T13:49:01.076Z,99225.28
2023-04-28T13:51:34.300Z,99221.27
2023-04-28T13:54:11.729Z,99219.52
2023-04-28T13:56:44.638Z,99212.40
2023-04-28T13:59:17.565Z,99216.75
2023-04-28T14:01:50.664Z,99225.91
2023-04-28T14:04:23.546Z,99236.91
2023-04-28T14:06:56.803Z,99234.71
2023-04-28T14:09:29.738Z,99224.98
2023-04-28T14:12:03.285Z,99226.28
2023-04-28T14:14:38.974Z,99226.25
2023-04-28T14:17:12.834Z,99229.36
2023-04-28T14:19:47.158Z,99228.44
2023-04-28T14:22:19.117Z,99230.18
2023-04-28T14:24:51.933Z,99223.50
2023-04-28T14:27:25.411Z,99231.39
2023-04-28T14:29:58.274Z,99232.25
2023-04-28T14:32:31.364Z,99233.97
2023-04-28T14:35:05.850Z,99235.73
2023-04-28T14:37:39.256Z,99241.89
2023-04-28T14:40:12.780Z,99238.37
2023-04-28T14:42:45.885Z,99239.24
2023-04-28T14:45:18.996Z,99241.88
2023-04-28T14:47:52.569Z,99241.41
2023-04-28T14:50:25.364Z,99237.45
2023-04-28T14:52:59.989Z,99241.88
2023-04-28T14:55:33.191Z,99243.67
2023-04-28T14:58:05.854Z,99237.94
2023-04-28T15:00:38.705Z,99237.05
2023-04-28T15:03:11.737Z,99231.72
2023-04-28T15:05:44.767Z,99235.69
2023-04-28T15:08:17.963Z,99240.09
2023-04-28T15:10:50.851Z,99239.22
2023-04-28T15:13:25.503Z,99240.95
2023-04-28T15:15:58.381Z,99236.53
2023-04-28T15:18:31.455Z,99237.79
2023-04-28T15:21:04.843Z,99242.15
2023-04-28T15:23:38.213Z,99238.17
2023-04-28T15:26:11.208Z,99238.17
2023-04-28T15:28:43.964Z,99236.83
2023-04-28T15:31:17.341Z,99235.52
2023-04-28T15:33:50.544Z,99243.44
2023-04-28T15:36:23.459Z,99239.03
2023-04-28T15:38:56.925Z,99236.84
2023-04-28T15:41:29.885Z,99241.69
2023-04-28T15:44:03.420Z,99244.78
2023-04-28T15:46:38.550Z,99241.69
2023-04-28T15:49:12.103Z,99247.81
2023-04-28T15:51:45.928Z,99247.78
2023-04-28T15:54:18.761Z,99250.82
2023-04-28T15:56:52.018Z,99250.34
2023-04-28T15:59:25.321Z,99256.02
2023-04-28T16:01:58.265Z,99260.84
2023-04-28T16:04:31.637Z,99259.02
2023-04-28T16:07:06.308Z,99259.42
2023-04-28T16:09:40.263Z,99261.99
2023-04-28T16:12:13.206Z,99265.88
2023-04-28T16:14:46.364Z,99264.03
2023-04-28T16:17:19.117Z,99261.35
2023-04-28T16:19:52.668Z,99260.91
2023-04-28T16:22:28.387Z,99261.27
2023-04-28T16:25:02.316Z,99263.44
2023-04-28T16:27:36.131Z,99267.38
2023-04-28T16:30:10.663Z,99270.80
2023-04-28T16:32:43.727Z,99273.86
2023-04-28T16:35:16.671Z,99271.67
2023-04-28T16:37:49.667Z,99274.27
2023-04-28T16:40:22.791Z,99281.20
2023-04-28T16:42:56.210Z,99278.50
2023-04-28T16:45:29.702Z,99277.63
2023-04-28T16:48:02.735Z,99280.24
2023-04-28T16:50:36.570Z,99279.34
2023-04-28T16:53:10.532Z,99282.81
2023-04-28T16:55:43.626Z,99286.77
2023-04-28T16:58:16.597Z,99295.98
2023-04-28T17:00:49.649Z,99293.28
2023-04-28T17:03:24.722Z,99299.47
2023-04-28T17:05:57.678Z,99300.37
2023-04-28T17:08:30.472Z,99305.64
2023-04-28T17:11:05.836Z,99295.09
2023-04-28T17:13:38.644Z,99302.08
2023-04-28T17:16:11.868Z,99294.09
2023-04-28T17:18:45.254Z,99295.37
2023-04-28T17:21:18.339Z,99301.94
2023-04-28T17:23:51.407Z,99309.38
2023-04-28T17:26:24.968Z,99301.03
2023-04-28T17:28:59.112Z,99316.52
2023-04-28T17:31:32.713Z,99317.91
2023-04-28T17:34:05.397Z,99317.98
2023-04-28T17:36:38.323Z,99325.02
2023-04-28T17:39:11.001Z,99326.78
2023-04-28T17:41:45.351Z,99327.20
2023-04-28T17:44:17.273Z,99326.70
2023-04-28T17:46:50.295Z,99330.66
2023-04-28T17:49:23.383Z,99328.45
2023-04-28T17:51:56.734Z,99324.48
2023-04-28T17:54:29.658Z,99323.53
2023-04-28T17:57:03.068Z,99329.20
2023-04-28T17:59:36.116Z,99326.98
2023-04-28T18:02:13.307Z,99330.94
2023-04-28T18:04:47.243Z,99330.94
2023-04-28T18:07:19.989Z,99332.25
2023-04-28T18:09:53.278Z,99333.13
2023-04-28T18:12:27.011Z,99336.64
2023-04-28T18:14:59.809Z,99337.56
2023-04-28T18:17:33.553Z,99342.76
2023-04-28T18:20:08.029Z,99344.02
2023-04-28T18:22:41.788Z,99340.87
2023-04-28T18:25:17.188Z,99342.66
2023-04-28T18:27:50.082Z,99347.93
2023-04-28T18:30:23.624Z,99350.62
2023-04-28T18:32:56.766Z,99348.88
2023-04-28T18:35:29.696Z,99346.66
2023-04-28T18:38:03.117Z,99352.36
2023-04-28T18:40:40.943Z,99354.53
2023-04-28T18:43:14.527Z,99356.64
2023-04-28T18:45:47.296Z,99349.06
2023-04-28T18:48:20.984Z,99349.42
2023-04-28T18:50:54.198Z,99344.52
2023-04-28T18:53:27.379Z,99348.41
2023-04-28T18:56:00.530Z,99343.93
2023-04-28T18:58:33.606Z,99346.08
2023-04-28T19:01:06.899Z,99343.03
2023-04-28T19:03:40.327Z,99342.64
2023-04-28T19:06:14.318Z,99341.35
2023-04-28T19:08:47.679Z,99334.76
2023-04-28T19:11:20.759Z,99336.13
2023-04-28T19:13:54.977Z,99330.88
2023-04-28T19:16:28.000Z,99340.58
2023-04-28T19:19:01.029Z,99343.19
2023-04-28T19:21:43.562Z,99343.57
2023-04-28T19:24:16.626Z,99345.30
2023-04-28T19:26:49.856Z,99342.17
2023-04-28T19:29:23.172Z,99351.38
2023-04-28T19:31:56.402Z,99351.79
2023-04-28T19:34:29.525Z,99350.33
2023-04-28T19:37:02.962Z,99350.12
2023-04-28T19:39:36.676Z,99343.39
2023-04-28T19:42:10.296Z,99347.22
2023-04-28T19:44:43.452Z,99340.95
2023-04-28T19:47:24.654Z,99340.42
2023-04-28T19:49:58.050Z,99335.88
2023-04-28T19:52:30.923Z,99340.99
2023-04-28T19:55:04.387Z,99340.93
2023-04-28T19:57:37.512Z,99346.17
2023-04-28T20:00:12.515Z,99346.98
2023-04-28T20:02:46.170Z,99352.53
2023-04-28T20:05:20.842Z,99344.39
2023-04-28T20:07:56.505Z,99342.44
2023-04-28T20:10:29.842Z,99334.88
2023-04-28T20:13:03.102Z,99333.86
2023-04-28T20:15:36.519Z,99327.98
2023-04-28T20:18:09.518Z,99323.50
2023-04-28T20:20:44.042Z,99318.94
2023-04-28T20:23:16.124Z,99330.30
2023-04-28T20:25:48.999Z,99336.45
2023-04-28T20:28:22.451Z,99339.55
2023-04-28T20:30:55.519Z,99338.13
2023-04-28T20:33:28.924Z,99339.70
2023-04-28T20:36:02.079Z,99346.68
2023-04-28T20:38:35.296Z,99347.48
2023-04-28T20:41:08.938Z,99345.73
2023-04-28T20:43:42.405Z,99347.81
2023-04-28T20:46:16.127Z,99351.24
2023-04-28T20:48:49.711Z,99359.50
2023-04-28T20:51:22.585Z,99357.27
2023-04-28T20:53:55.799Z,99357.27
2023-04-28T20:56:28.669Z,99354.97
2023-04-28T20:59:01.951Z,99357.88
2023-04-28T21:01:35.045Z,99353.53
2023-04-28T21:04:09.093Z,99350.83
2023-04-28T21:06:42.354Z,99365.05
2023-04-28T21:09:15.540Z,99372.31
2023-04-28T21:11:48.858Z,99377.53
2023-04-28T21:14:22.499Z,99382.30
2023-04-28T21:16:55.294Z,99392.22
2023-04-28T21:19:29.205Z,99384.05
2023-04-28T21:22:02.388Z,99383.78
2023-04-28T21:24:35.277Z,99386.55
2023-04-28T21:27:08.068Z,99388.09
2023-04-28T21:29:41.254Z,99397.23
2023-04-28T21:32:14.279Z,99398.42
2023-04-28T21:34:49.820Z,99397.89
2023-04-28T21:37:22.734Z,99397.50
2023-04-28T21:39:58.377Z,99388.39
2023-04-28T21:42:32.274Z,99392.29
2023-04-28T21:45:06.094Z,99394.48
2023-04-28T21:47:42.063Z,99395.14
2023-04-28T21:50:14.293Z,99383.80
2023-04-28T21:52:47.203Z,99382.09
2023-04-28T21:55:20.626Z,99377.23
2023-04-28T21:57:54.422Z,99377.67
2023-04-28T22:00:28.330Z,99379.59
2023-04-28T22:03:01.632Z,99372.28
2023-04-28T22:05:35.740Z,99373.31
2023-04-28T22:08:08.712Z,99371.77
2023-04-28T22:10:42.072Z,99380.23
2023-04-28T22:13:17.738Z,99378.11
2023-04-28T22:15:50.895Z,99359.28
2023-04-28T22:18:23.918Z,99356.17
2023-04-28T22:20:56.832Z,99353.45
2023-04-28T22:23:29.902Z,99359.00
2023-04-28T22:26:02.964Z,99365.35
2023-04-28T22:28:35.961Z,99369.13
2023-04-28T22:31:09.307Z,99365.54
2023-04-28T22:33:42.351Z,99367.29
2023-04-28T22:36:15.093Z,99368.60
2023-04-28T22:38:47.908Z,99370.39
2023-04-28T22:41:20.819Z,99371.75
2023-04-28T22:43:53.760Z,99364.75
2023-04-28T22:46:26.674Z,99358.40
2023-04-28T22:48:59.654Z,99350.70
2023-04-28T22:51:32.928Z,99344.36
2023-04-28T22:54:05.894Z,99344.17
2023-04-28T22:56:38.729Z,99343.52
2023-04-28T22:59:11.655Z,99350.71
2023-04-28T23:01:44.717Z,99363.34
2023-04-28T23:04:18.339Z,99371.22
2023-04-28T23:06:51.196Z,99373.80
2023-04-28T23:09:24.253Z,99380.41
2023-04-28T23:11:57.322Z,99377.88
2023-04-28T23:14:30.653Z,99380.67
2023-04-28T23:17:03.485Z,99391.31
2023-04-28T23:19:38.874Z,99392.23
2023-04-28T23:22:11.866Z,99395.70
2023-04-28T23:24:44.823Z,99400.11
2023-04-28T23:27:18.012Z,99400.69
2023-04-28T23:29:51.250Z,99403.75
2023-04-28T23:32:24.662Z,99398.02
2023-04-28T23:34:57.662Z,99400.55
2023-04-28T23:37:30.623Z,99398.84
2023-04-28T23:40:04.834Z,99394.95
2023-04-28T23:42:39.829Z,99395.00
2023-04-28T23:45:13.478Z,99389.27
2023-04-28T23:47:46.373Z,99390.92
2023-04-28T23:50:19.933Z,99386.02
2023-04-28T23:52:52.854Z,99383.84
2023-04-28T23:55:25.675Z,99383.92
2023-04-28T23:57:58.467Z,99382.25
